Time;durP1;ratioP1;P1;durP2;ratioP2;P2;SDS_P1;SDS_P2;PMS_P1;PMS_P2;Temp;Humidity;BMP_temperature;BMP_pressure;BME280_temperature;BME280_humidity;BME280_pressure;Samples;Min_cycle;Max_cycle;Signal;HPM_P1;HPM_P2
2023/09/25 00:02:59;;;;;;;0.00;0.00;;;;;;;-145.06;100.00;56299.00;10382771;28;20389;-66
2023/09/25 00:08:00;;;;;;;0.10;0.10;;;;;;;-145.06;100.00;56323.31;10390647;28;20033;-65
2023/09/25 00:13:00;;;;;;;0.10;0.10;;;;;;;-145.06;100.00;56327.38;10392292;28;20021;-65
2023/09/25 00:18:01;;;;;;;0.08;0.08;;;;;;;-145.06;100.00;56343.59;10391761;28;20041;-67
2023/09/25 00:23:01;;;;;;;0.10;0.10;;;;;;;-145.06;100.00;56311.16;10391703;28;20024;-67
2023/09/25 00:28:02;;;;;;;0.10;0.10;;;;;;;-145.06;100.00;56327.38;10383208;28;20061;-67
2023/09/25 00:33:02;;;;;;;0.10;0.10;;;;;;;-145.06;100.00;56307.09;10388239;28;20030;-67
2023/09/25 00:38:04;;;;;;;0.10;0.10;;;;;;;-145.06;100.00;56337.50;10385962;28;20018;-66
2023/09/25 00:43:05;;;;;;;0.10;0.10;;;;;;;-145.06;100.00;56321.28;10397917;28;20029;-66
2023/09/25 00:48:10;;;;;;;0.00;0.00;;;;;;;-145.06;100.00;56323.31;10394062;28;20117;-66
2023/09/25 00:53:11;;;;;;;0.00;0.00;;;;;;;-145.06;100.00;56319.25;10389966;28;20045;-65
2023/09/25 00:58:11;;;;;;;0.08;0.08;;;;;;;-145.06;100.00;56315.22;10383819;28;20049;-66
2023/09/25 01:03:12;;;;;;;0.03;0.03;;;;;;;-145.06;100.00;56268.59;10395248;28;20017;-67
2023/09/25 01:08:13;;;;;;;0.10;0.10;;;;;;;-145.06;100.00;56292.91;10393796;28;20025;-66
2023/09/25 01:13:15;;;;;;;0.08;0.08;;;;;;;-145.06;100.00;56301.03;10390682;28;20435;-66
2023/09/25 01:18:15;;;;;;;0.10;0.10;;;;;;;-145.06;100.00;56274.69;10385775;28;20025;-66
2023/09/25 01:23:15;;;;;;;0.08;0.08;;;;;;;-145.06;100.00;56246.31;10386338;28;20118;-66
2023/09/25 01:28:15;;;;;;;0.10;0.10;;;;;;;-145.06;100.00;56254.41;10393021;28;20021;-68
2023/09/25 01:33:16;;;;;;;0.10;0.10;;;;;;;-145.06;100.00;56209.84;10398295;28;20506;-65
2023/09/25 01:38:16;;;;;;;0.10;0.10;;;;;;;-145.06;100.00;56248.34;10392740;28;20484;-66
2023/09/25 01:43:17;;;;;;;0.10;0.10;;;;;;;-145.06;100.00;56256.44;10391259;28;20279;-66
2023/09/25 01:48:17;;;;;;;0.00;0.00;;;;;;;-145.06;100.00;56246.31;10384687;28;20105;-65
2023/09/25 01:53:18;;;;;;;0.10;0.10;;;;;;;-145.06;100.00;56219.97;10387946;28;20474;-67
2023/09/25 01:58:18;;;;;;;0.10;0.10;;;;;;;-145.06;100.00;56217.94;10387250;28;20021;-65
2023/09/25 02:03:18;;;;;;;0.00;0.00;;;;;;;-145.06;100.00;56252.41;10388482;28;20167;-65
2023/09/25 02:08:18;;;;;;;0.00;0.00;;;;;;;-145.06;100.00;56250.38;10392410;28;20025;-66
2023/09/25 02:13:19;;;;;;;0.10;0.10;;;;;;;-145.06;100.00;56272.66;10389050;28;20029;-66
2023/09/25 02:18:20;;;;;;;0.10;0.10;;;;;;;-145.06;100.00;56258.47;10391885;28;20044;-66
2023/09/25 02:23:20;;;;;;;0.10;0.10;;;;;;;-145.06;100.00;56278.75;10384039;28;20047;-66
2023/09/25 02:28:20;;;;;;;0.10;0.10;;;;;;;-145.06;100.00;56276.72;10391417;28;20493;-66
2023/09/25 02:33:21;;;;;;;0.10;0.10;;;;;;;-145.06;100.00;56296.97;10395986;28;20037;-66
2023/09/25 02:38:21;;;;;;;0.00;0.00;;;;;;;-145.06;100.00;56238.22;10391159;28;20160;-66
2023/09/25 02:43:22;;;;;;;0.00;0.00;;;;;;;-145.06;100.00;56256.44;10377134;28;20445;-65
2023/09/25 02:48:22;;;;;;;0.10;0.10;;;;;;;-145.06;100.00;56238.22;10385502;28;20025;-65
2023/09/25 02:53:23;;;;;;;0.10;0.10;;;;;;;-145.06;100.00;56250.38;10388211;28;20097;-66
2023/09/25 02:58:24;;;;;;;0.10;0.10;;;;;;;-145.06;100.00;56246.31;10383605;28;20438;-66
2023/09/25 03:03:24;;;;;;;0.00;0.00;;;;;;;-145.06;100.00;56260.50;10397726;28;20033;-66
2023/09/25 03:08:24;;;;;;;0.00;0.00;;;;;;;-145.06;100.00;56230.09;10387559;28;20036;-66
2023/09/25 03:13:25;;;;;;;0.10;0.10;;;;;;;-145.06;100.00;56238.22;10383512;28;20076;-65
2023/09/25 03:18:25;;;;;;;0.10;0.10;;;;;;;-145.06;100.00;56250.38;10392374;28;20057;-65
2023/09/25 03:23:25;;;;;;;0.10;0.10;;;;;;;-145.06;100.00;56213.91;10375917;28;20025;-66
2023/09/25 03:28:26;;;;;;;0.00;0.00;;;;;;;-145.06;100.00;56222.00;10375789;28;20051;-65
2023/09/25 03:33:27;;;;;;;0.10;0.10;;;;;;;-145.06;100.00;56248.34;10383081;28;20557;-65
2023/09/25 03:38:27;;;;;;;0.10;0.10;;;;;;;-145.06;100.00;56256.44;10395752;28;20026;-65
2023/09/25 03:43:28;;;;;;;0.10;0.10;;;;;;;-145.06;100.00;56222.00;10390421;28;20013;-65
2023/09/25 03:48:29;;;;;;;0.00;0.00;;;;;;;-145.06;100.00;56248.34;10379545;28;20460;-65
2023/09/25 03:53:29;;;;;;;0.10;0.10;;;;;;;-145.06;100.00;56242.25;10389176;28;20116;-65
2023/09/25 03:58:29;;;;;;;0.10;0.10;;;;;;;-145.06;100.00;56238.22;10384788;28;20025;-66
2023/09/25 04:03:29;;;;;;;0.10;0.10;;;;;;;-145.06;100.00;56248.34;10395716;28;20296;-65
2023/09/25 04:08:30;;;;;;;0.10;0.10;;;;;;;-145.06;100.00;56232.13;10383575;28;20061;-65
2023/09/25 04:13:31;;;;;;;0.10;0.10;;;;;;;-145.06;100.00;56219.97;10390859;28;20025;-66
2023/09/25 04:18:32;;;;;;;0.10;0.10;;;;;;;-145.06;100.00;56230.09;10386711;28;20370;-66
2023/09/25 04:23:33;;;;;;;0.05;0.05;;;;;;;-145.06;100.00;56234.16;10388765;28;20047;-66
2023/09/25 04:28:34;;;;;;;0.00;0.00;;;;;;;-145.06;100.00;56222.00;10384173;28;20067;-66
2023/09/25 04:33:35;;;;;;;0.00;0.00;;;;;;;-145.06;100.00;56224.03;10398198;28;20113;-66
2023/09/25 04:38:39;;;;;;;0.10;0.10;;;;;;;-145.06;100.00;56199.72;10382904;28;20021;-66
2023/09/25 04:43:40;;;;;;;0.10;0.10;;;;;;;-145.06;100.00;56213.91;10386667;28;20045;-65
2023/09/25 04:48:40;;;;;;;0.00;0.00;;;;;;;-145.06;100.00;56213.91;10381703;28;20022;-66
2023/09/25 04:53:41;;;;;;;0.00;0.00;;;;;;;-145.06;100.00;56213.91;10399946;28;20032;-66
2023/09/25 04:58:41;;;;;;;0.10;0.10;;;;;;;-145.06;100.00;56189.56;10382669;28;20097;-65
2023/09/25 05:03:41;;;;;;;0.00;0.00;;;;;;;-145.06;100.00;56185.53;10388550;28;20124;-66
2023/09/25 05:08:43;;;;;;;0.00;0.00;;;;;;;-145.06;100.00;56185.53;10393021;28;20029;-66
2023/09/25 05:13:44;;;;;;;0.10;0.10;;;;;;;-145.06;100.00;56234.16;10390672;28;20458;-65
2023/09/25 05:18:44;;;;;;;0.10;0.10;;;;;;;-145.06;100.00;56207.81;10387960;28;20028;-66
2023/09/25 05:23:44;;;;;;;0.05;0.05;;;;;;;-145.06;100.00;56173.38;10386016;28;20022;-65
2023/09/25 05:28:44;;;;;;;0.05;0.05;;;;;;;-145.06;100.00;56169.31;10393486;28;20072;-66
2023/09/25 05:33:45;;;;;;;0.10;0.10;;;;;;;-145.06;100.00;56217.94;10390000;28;20032;-65
2023/09/25 05:38:45;;;;;;;0.10;0.10;;;;;;;-145.06;100.00;56351.69;10392050;28;20101;-66
2023/09/25 05:43:45;;;;;;;0.05;0.05;;;;;;;-145.06;100.00;56294.94;10393177;28;20213;-66
2023/09/25 05:48:46;;;;;;;0.00;0.00;;;;;;;-145.06;100.00;56270.63;10386151;28;20025;-66
2023/09/25 05:53:47;;;;;;;0.10;0.10;;;;;;;-145.06;100.00;56305.09;10386652;28;20514;-66
2023/09/25 05:58:48;;;;;;;0.10;0.10;;;;;;;-145.06;100.00;56424.63;10388287;28;20025;-65
2023/09/25 06:03:49;;;;;;;0.00;0.00;;;;;;;-145.06;100.00;56410.47;10393194;28;20024;-65
2023/09/25 06:08:50;;;;;;;0.10;0.10;;;;;;;-145.06;100.00;56384.13;10391577;28;20350;-66
2023/09/25 06:13:50;;;;;;;0.00;0.00;;;;;;;-145.06;100.00;56331.44;10385288;28;20071;-65
2023/09/25 06:18:50;;;;;;;0.10;0.10;;;;;;;-145.06;100.00;56321.28;10385260;28;20034;-67
2023/09/25 06:23:52;;;;;;;0.10;0.10;;;;;;;-145.06;100.00;56361.81;10399257;28;20272;-66
2023/09/25 06:28:53;;;;;;;0.00;0.00;;;;;;;-145.06;100.00;56284.81;10387889;28;20029;-66
2023/09/25 06:33:53;;;;;;;0.10;0.10;;;;;;;-145.06;100.00;56363.84;10386072;28;20397;-66
2023/09/25 06:38:54;;;;;;;0.00;0.00;;;;;;;-145.06;100.00;56361.81;10387349;28;20019;-66
2023/09/25 06:43:55;;;;;;;0.10;0.10;;;;;;;-145.06;100.00;56426.66;10390385;28;20017;-66
2023/09/25 06:48:55;;;;;;;0.10;0.10;;;;;;;-145.06;100.00;56339.53;10383331;28;20022;-66
2023/09/25 06:53:56;;;;;;;0.10;0.10;;;;;;;-145.06;99.72;56382.09;10395589;28;20096;-66
2023/09/25 06:58:56;;;;;;;0.03;0.03;;;;;;;-145.06;94.38;56507.72;10374806;28;20112;-66
2023/09/25 07:03:56;;;;;;;0.10;0.10;;;;;;;-145.06;91.80;56521.91;10382072;28;20018;-66
2023/09/25 07:08:57;;;;;;;0.03;0.03;;;;;;;-145.06;90.24;56521.91;10389986;28;20033;-66
2023/09/25 07:13:57;;;;;;;0.00;0.00;;;;;;;-145.06;89.77;56570.53;10397001;28;20017;-65
2023/09/25 07:18:59;;;;;;;0.00;0.00;;;;;;;-145.06;85.18;56655.66;10409916;28;20130;-66
2023/09/25 07:23:59;;;;;;;0.05;0.05;;;;;;;-145.06;82.47;56692.13;10393607;28;20032;-66
2023/09/25 07:28:59;;;;;;;0.10;0.10;;;;;;;-145.06;80.90;56720.50;10390634;28;20174;-66
2023/09/25 07:33:59;;;;;;;0.10;0.10;;;;;;;-145.06;80.23;56748.88;10389525;28;20022;-66
2023/09/25 07:39:00;;;;;;;0.00;0.00;;;;;;;-145.06;84.38;56667.81;10392526;28;20027;-65
2023/09/25 07:44:05;;;;;;;0.00;0.00;;;;;;;-145.06;85.98;56686.06;10398540;28;20191;-66
2023/09/25 07:49:06;;;;;;;0.00;0.00;;;;;;;-145.06;85.68;56655.66;10400006;28;20034;-66
2023/09/25 07:54:08;;;;;;;0.10;0.10;;;;;;;-145.06;84.62;56657.69;10398065;28;20040;-66
2023/09/25 07:59:10;;;;;;;0.00;0.00;;;;;;;-145.06;85.42;56667.81;10390300;28;20064;-67
2023/09/25 08:04:10;;;;;;;0.10;0.10;;;;;;;-145.06;87.08;56637.41;10393867;28;20022;-66
2023/09/25 08:09:11;;;;;;;0.00;0.00;;;;;;;-145.06;86.53;56663.78;10398469;28;20030;-67
2023/09/25 08:14:13;;;;;;;0.00;0.00;;;;;;;-145.06;86.83;56651.59;10391289;28;20135;-66
2023/09/25 08:19:17;;;;;;;0.03;0.03;;;;;;;-145.06;85.50;56716.47;10395547;28;20381;-66
2023/09/25 08:24:18;;;;;;;0.00;0.00;;;;;;;-145.06;85.13;56708.34;10392146;28;20017;-66
2023/09/25 08:29:18;;;;;;;0.00;0.00;;;;;;;-145.06;83.74;56795.50;10395743;28;20368;-66
2023/09/25 08:34:19;;;;;;;0.00;0.00;;;;;;;-145.06;81.80;56803.59;10392711;28;20077;-67
2023/09/25 08:39:19;;;;;;;0.00;0.00;;;;;;;-145.06;79.43;56862.38;10377315;28;20076;-67
2023/09/25 08:44:20;;;;;;;0.00;0.00;;;;;;;-145.06;78.29;56886.69;10392821;28;20030;-67
2023/09/25 08:49:22;;;;;;;0.00;0.00;;;;;;;-145.06;78.02;56917.09;10380440;28;20026;-67
2023/09/25 08:54:22;;;;;;;0.00;0.00;;;;;;;-145.06;76.80;56951.56;10396449;28;20057;-67
2023/09/25 08:59:24;;;;;;;0.00;0.00;;;;;;;-145.06;76.15;57000.19;10390711;28;20029;-65
2023/09/25 09:04:24;;;;;;;0.00;0.00;;;;;;;-145.06;75.95;56963.72;10391992;28;20097;-67
2023/09/25 09:09:24;;;;;;;0.00;0.00;;;;;;;-145.06;76.62;56957.63;10385374;28;20108;-67
2023/09/25 09:14:35;;;;;;;0.00;0.00;;;;;;;-145.06;77.30;56937.38;10394491;28;20606;-68
2023/09/25 09:19:50;;;;;;;0.03;0.03;;;;;;;-145.06;78.33;56935.34;10385772;28;20026;-66
2023/09/25 09:24:52;;;;;;;0.00;0.00;;;;;;;-145.06;75.81;57008.31;10393400;28;20018;-66
2023/09/25 09:29:52;;;;;;;0.00;0.00;;;;;;;-145.06;74.34;57040.72;10398367;28;20041;-66
2023/09/25 09:34:53;;;;;;;0.00;0.00;;;;;;;-145.06;74.09;57006.28;10392197;28;20037;-67
2023/09/25 09:39:55;;;;;;;0.00;0.00;;;;;;;-145.06;73.91;57075.19;10394733;28;20021;-66
2023/09/25 09:44:56;;;;;;;0.00;0.00;;;;;;;-145.06;76.24;57073.16;10390774;28;20073;-66
2023/09/25 09:49:57;;;;;;;0.00;0.00;;;;;;;-145.06;70.90;57105.59;10391935;28;20511;-66
2023/09/25 09:54:59;;;;;;;0.00;0.00;;;;;;;-145.06;69.35;57188.69;10400056;28;20108;-67
2023/09/25 09:59:59;;;;;;;0.00;0.00;;;;;;;-145.06;72.03;57148.16;10388711;28;20511;-67
2023/09/25 10:05:00;;;;;;;0.10;0.10;;;;;;;-145.06;68.54;57247.47;10397563;28;20108;-67
2023/09/25 10:10:05;;;;;;;0.10;0.10;;;;;;;-145.06;67.91;57279.91;10392813;28;20027;-67
2023/09/25 10:15:08;;;;;;;0.00;0.00;;;;;;;-145.06;67.48;57261.66;10381606;28;20061;-67
2023/09/25 10:20:30;;;;;;;0.00;0.00;;;;;;;-145.06;68.09;57227.19;10374893;28;20029;-67
2023/09/25 10:25:47;;;;;;;0.00;0.00;;;;;;;-145.06;69.25;57190.72;10387196;28;20578;-68
2023/09/25 10:30:49;;;;;;;0.00;0.00;;;;;;;-145.06;63.42;57271.78;10381003;28;20442;-67
2023/09/25 10:35:50;;;;;;;0.00;0.00;;;;;;;-145.06;64.66;57275.84;10387162;28;20017;-67
2023/09/25 10:40:54;;;;;;;0.10;0.10;;;;;;;-145.06;64.27;57300.16;10377807;28;20057;-67
2023/09/25 10:45:54;;;;;;;0.10;0.10;;;;;;;-145.06;62.01;57314.34;10388483;28;20022;-67
2023/09/25 10:50:55;;;;;;;0.07;0.07;;;;;;;-145.06;65.19;57306.25;10385636;28;20045;-67
2023/09/25 10:55:55;;;;;;;0.00;0.00;;;;;;;-145.06;59.97;57358.94;10392026;28;20029;-66
2023/09/25 11:00:56;;;;;;;0.00;0.00;;;;;;;-145.06;60.93;57332.59;10384083;28;20441;-67
2023/09/25 11:05:56;;;;;;;0.00;0.00;;;;;;;-145.06;63.35;57308.28;10382786;28;20135;-66
2023/09/25 11:10:57;;;;;;;0.00;0.00;;;;;;;-145.06;59.79;57405.56;10380141;28;20604;-67
2023/09/25 11:16:00;;;;;;;0.10;0.10;;;;;;;-145.06;57.79;57389.34;10382944;28;20284;-67
2023/09/25 11:21:00;;;;;;;0.10;0.10;;;;;;;-145.06;60.54;57338.69;10380444;28;20461;-67
2023/09/25 11:26:02;;;;;;;0.00;0.00;;;;;;;-145.06;61.20;57320.44;10384860;28;20018;-66
2023/09/25 11:31:03;;;;;;;0.00;0.00;;;;;;;-145.06;62.28;57328.53;10391313;28;20030;-66
2023/09/25 11:36:10;;;;;;;0.10;0.10;;;;;;;-145.06;55.67;57440.03;10391902;28;20051;-67
2023/09/25 11:41:10;;;;;;;0.00;0.00;;;;;;;-145.06;62.35;57393.41;10395392;28;20022;-66
2023/09/25 11:46:11;;;;;;;0.00;0.00;;;;;;;-145.06;58.51;57470.44;10386161;28;20018;-66
2023/09/25 11:51:11;;;;;;;0.10;0.10;;;;;;;-145.06;57.45;57462.31;10387466;28;20430;-67
2023/09/25 11:56:11;;;;;;;0.00;0.00;;;;;;;-145.06;59.70;57431.91;10386478;28;20103;-65
2023/09/25 12:01:12;;;;;;;0.00;0.00;;;;;;;-145.06;58.90;57385.28;10389426;28;20441;-66
2023/09/25 12:06:12;;;;;;;0.00;0.00;;;;;;;-145.06;57.40;57397.47;10386395;28;20118;-66
2023/09/25 12:11:15;;;;;;;0.10;0.10;;;;;;;-145.06;61.61;57381.25;10388788;28;20017;-65
2023/09/25 12:16:16;;;;;;;;;;;;;;;-145.06;59.43;57369.06;10402336;28;20475;-66
2023/09/25 12:21:16;;;;;;;0.00;0.00;;;;;;;-145.06;57.20;57381.25;10381924;28;19963;-66
2023/09/25 12:26:16;;;;;;;0.00;0.00;;;;;;;-145.06;57.48;57360.97;10395233;28;20104;-66
2023/09/25 12:31:16;;;;;;;0.00;0.00;;;;;;;-145.06;58.75;57336.66;10399727;28;20457;-66
2023/09/25 12:36:17;;;;;;;0.00;0.00;;;;;;;-145.06;61.26;57365.03;10390824;28;20037;-66
2023/09/25 12:41:18;;;;;;;0.00;0.00;;;;;;;-145.06;57.40;57442.03;10386680;28;20017;-66
2023/09/25 12:46:18;;;;;;;0.00;0.00;;;;;;;-145.06;58.45;57438.00;10374276;28;20025;-66
2023/09/25 12:51:19;;;;;;;0.00;0.00;;;;;;;-145.06;57.26;57504.88;10393445;28;20029;-66
2023/09/25 12:56:19;;;;;;;0.00;0.00;;;;;;;-145.06;55.66;57517.06;10383130;28;20859;-66
2023/09/25 13:01:20;;;;;;;0.00;0.00;;;;;;;-145.06;57.26;57496.78;10380792;28;20021;-66
2023/09/25 13:06:20;;;;;;;0.10;0.10;;;;;;;-145.06;57.69;57464.34;10384513;28;20045;-66
2023/09/25 13:11:23;;;;;;;0.00;0.00;;;;;;;-145.06;57.04;57478.53;10392239;28;20496;-65
2023/09/25 13:16:24;;;;;;;0.00;0.00;;;;;;;-145.06;56.29;57446.09;10390805;28;20033;-67
2023/09/25 13:21:25;;;;;;;0.00;0.00;;;;;;;-145.06;59.28;57435.97;10382089;28;20481;-68
2023/09/25 13:26:26;;;;;;;0.08;0.08;;;;;;;-145.06;58.49;57440.03;10394363;28;20026;-66
2023/09/25 13:31:27;;;;;;;0.00;0.00;;;;;;;-145.06;58.43;57446.09;10388830;28;20469;-66
2023/09/25 13:36:27;;;;;;;0.10;0.10;;;;;;;-145.06;58.72;57425.84;10385936;28;20028;-66
2023/09/25 13:41:29;;;;;;;0.00;0.00;;;;;;;-145.06;61.06;57393.41;10376232;28;20617;-66
2023/09/25 13:46:29;;;;;;;0.10;0.10;;;;;;;-145.06;58.98;57438.00;10402918;28;20025;-66
2023/09/25 13:51:29;;;;;;;0.05;0.05;;;;;;;-145.06;60.35;57391.38;10383842;28;20032;-66
2023/09/25 13:56:33;;;;;;;0.00;0.00;;;;;;;-145.06;62.26;57397.47;10387690;28;20025;-66
2023/09/25 14:01:35;;;;;;;0.00;0.00;;;;;;;-145.06;63.14;57375.16;10382919;28;20025;-67
2023/09/25 14:06:35;;;;;;;0.00;0.00;;;;;;;-145.06;62.17;57365.03;10384309;28;20025;-66
2023/09/25 14:11:36;;;;;;;0.00;0.00;;;;;;;-145.06;61.34;57328.53;10387734;28;20021;-67
2023/09/25 14:16:36;;;;;;;0.00;0.00;;;;;;;-145.06;64.17;57316.38;10389712;28;20052;-66
2023/09/25 14:21:37;;;;;;;0.10;0.10;;;;;;;-145.06;65.96;57255.56;10392154;28;20469;-66
2023/09/25 14:26:37;;;;;;;0.00;0.00;;;;;;;-145.06;67.39;57253.53;10383681;28;20048;-66
2023/09/25 14:31:37;;;;;;;0.00;0.00;;;;;;;-145.06;68.72;57237.34;10380774;28;20032;-66
2023/09/25 14:36:38;;;;;;;0.10;0.10;;;;;;;-145.06;68.81;57223.16;10388648;28;20448;-66
2023/09/25 14:41:38;;;;;;;0.00;0.00;;;;;;;-145.06;68.19;57300.16;10383451;28;20392;-66
2023/09/25 14:46:38;;;;;;;0.00;0.00;;;;;;;-145.06;67.63;57267.72;10386528;28;20340;-66
2023/09/25 14:51:38;;;;;;;0.00;0.00;;;;;;;-145.06;66.76;57294.09;10397521;28;20044;-67
2023/09/25 14:56:39;;;;;;;0.00;0.00;;;;;;;-145.06;69.33;57263.69;10384776;28;20349;-67
2023/09/25 15:01:39;;;;;;;0.00;0.00;;;;;;;-145.06;67.26;57294.09;10384334;28;20025;-67
2023/09/25 15:06:40;;;;;;;0.00;0.00;;;;;;;-145.06;70.76;57198.81;10378894;28;20576;-67
2023/09/25 15:11:40;;;;;;;0.00;0.00;;;;;;;-145.06;72.25;57192.75;10379788;28;20109;-67
2023/09/25 15:16:40;;;;;;;0.00;0.00;;;;;;;-145.06;75.56;57150.19;10386910;28;20518;-67
2023/09/25 15:21:41;;;;;;;0.10;0.10;;;;;;;-145.06;75.68;57184.63;10390757;28;20022;-67
2023/09/25 15:26:42;;;;;;;0.10;0.10;;;;;;;-145.06;76.42;57174.50;10380193;28;20572;-67
2023/09/25 15:31:42;;;;;;;0.00;0.00;;;;;;;-145.06;74.52;57180.56;10387664;28;20080;-67
2023/09/25 15:36:42;;;;;;;0.10;0.10;;;;;;;-145.06;78.67;57093.44;10392301;28;20115;-66
2023/09/25 15:41:43;;;;;;;0.00;0.00;;;;;;;-145.06;78.53;57097.47;10386244;28;20036;-66
2023/09/25 15:46:43;;;;;;;0.00;0.00;;;;;;;-145.06;79.71;57075.19;10387762;28;20479;-66
2023/09/25 15:51:43;;;;;;;0.00;0.00;;;;;;;-145.06;81.01;57101.53;10400974;28;20468;-67
2023/09/25 15:56:44;;;;;;;0.10;0.10;;;;;;;-145.06;79.89;57040.72;10393107;28;20026;-66
2023/09/25 16:01:44;;;;;;;0.00;0.00;;;;;;;-145.06;81.29;57048.84;10390541;28;20096;-66
2023/09/25 16:06:45;;;;;;;0.00;0.00;;;;;;;-145.06;80.53;57069.09;10380474;28;20026;-66
2023/09/25 16:11:45;;;;;;;0.00;0.00;;;;;;;-145.06;80.36;57089.38;10398271;28;20025;-66
2023/09/25 16:16:45;;;;;;;0.00;0.00;;;;;;;-145.06;82.33;57052.88;10385425;28;20029;-66
2023/09/25 16:21:46;;;;;;;0.00;0.00;;;;;;;-145.06;80.86;57085.31;10387757;28;20028;-67
2023/09/25 16:26:46;;;;;;;0.00;0.00;;;;;;;-145.06;81.30;57026.53;10390587;28;20049;-65
2023/09/25 16:31:47;;;;;;;0.00;0.00;;;;;;;-145.06;80.42;57026.53;10384470;28;20039;-66
2023/09/25 16:36:47;;;;;;;0.00;0.00;;;;;;;-145.06;80.73;57026.53;10389850;28;20021;-66
2023/09/25 16:41:47;;;;;;;0.10;0.10;;;;;;;-145.06;83.31;56992.09;10391103;28;20025;-66
2023/09/25 16:46:48;;;;;;;0.00;0.00;;;;;;;-145.06;84.16;56941.41;10390987;28;20026;-65
2023/09/25 16:51:48;;;;;;;0.00;0.00;;;;;;;-145.06;85.77;56923.19;10389726;28;20026;-66
2023/09/25 16:56:48;;;;;;;0.00;0.00;;;;;;;-145.06;85.80;56923.19;10386327;28;20028;-66
2023/09/25 17:01:49;;;;;;;0.10;0.10;;;;;;;-145.06;86.61;56906.97;10387594;28;20748;-65
2023/09/25 17:06:49;;;;;;;0.10;0.10;;;;;;;-145.06;87.79;56894.81;10382063;28;20034;-65
2023/09/25 17:11:49;;;;;;;0.00;0.00;;;;;;;-145.06;87.59;56874.53;10382434;28;20501;-65
2023/09/25 17:16:49;;;;;;;0.10;0.10;;;;;;;-145.06;89.28;56825.91;10390232;28;20030;-65
2023/09/25 17:21:50;;;;;;;0.00;0.00;;;;;;;-145.06;93.35;56757.00;10386673;28;20100;-65
2023/09/25 17:26:50;;;;;;;0.00;0.00;;;;;;;-145.06;94.40;56748.88;10383691;28;20080;-65
2023/09/25 17:31:50;;;;;;;0.00;0.00;;;;;;;-145.06;94.51;56765.09;10390482;28;20034;-65
2023/09/25 17:36:51;;;;;;;0.10;0.10;;;;;;;-145.06;96.13;56724.56;10381785;28;20598;-65
2023/09/25 17:41:51;;;;;;;0.10;0.10;;;;;;;-145.06;97.20;56702.28;10385498;28;20013;-68
2023/09/25 17:46:51;;;;;;;0.10;0.10;;;;;;;-145.06;99.13;56700.25;10384621;28;20022;-67
2023/09/25 17:51:52;;;;;;;0.10;0.10;;;;;;;-145.06;99.81;56686.06;10375594;28;20473;-67
2023/09/25 17:56:54;;;;;;;0.10;0.10;;;;;;;-145.06;100.00;56641.47;10385194;28;20373;-66
2023/09/25 18:01:56;;;;;;;0.10;0.10;;;;;;;-145.06;100.00;56635.41;10385464;28;20025;-66
2023/09/25 18:06:56;;;;;;;0.10;0.10;;;;;;;-145.06;100.00;56588.78;10389140;28;20032;-67
2023/09/25 18:11:59;;;;;;;0.10;0.10;;;;;;;-145.06;100.00;56600.94;10384690;28;20028;-67
2023/09/25 18:17:00;;;;;;;0.17;0.17;;;;;;;-145.06;100.00;56590.81;10389263;28;20271;-67
2023/09/25 18:22:00;;;;;;;0.10;0.10;;;;;;;-145.06;100.00;56558.38;10388654;28;20052;-67
2023/09/25 18:27:03;;;;;;;0.10;0.10;;;;;;;-145.06;100.00;56554.34;10392178;28;20042;-66
2023/09/25 18:32:04;;;;;;;0.00;0.00;;;;;;;-145.06;100.00;56540.16;10391577;28;20034;-66
2023/09/25 18:37:04;;;;;;;0.10;0.10;;;;;;;-145.06;100.00;56511.78;10389155;28;20030;-66
2023/09/25 18:42:04;;;;;;;0.10;0.10;;;;;;;-145.06;100.00;56471.25;10384229;28;20026;-67
2023/09/25 18:47:05;;;;;;;0.10;0.10;;;;;;;-145.06;100.00;56457.06;10391081;28;20029;-66
2023/09/25 18:52:05;;;;;;;0.00;0.00;;;;;;;-145.06;100.00;56442.88;10394693;28;20022;-66
2023/09/25 18:57:06;;;;;;;0.10;0.10;;;;;;;-145.06;100.00;56442.88;10392166;28;20017;-66
2023/09/25 19:02:07;;;;;;;0.10;0.10;;;;;;;-145.06;100.00;56390.19;10391897;28;20104;-67
2023/09/25 19:07:07;;;;;;;0.00;0.00;;;;;;;-145.06;100.00;56388.16;10395233;28;20017;-67
2023/09/25 19:12:07;;;;;;;0.00;0.00;;;;;;;-145.06;100.00;56418.56;10397007;28;20021;-66
2023/09/25 19:17:07;;;;;;;0.10;0.10;;;;;;;-145.06;100.00;56380.06;10391824;28;20022;-66
2023/09/25 19:22:08;;;;;;;0.10;0.10;;;;;;;-145.06;100.00;56373.97;10390654;28;20292;-66
2023/09/25 19:27:08;;;;;;;0.10;0.10;;;;;;;-145.06;100.00;56371.94;10386324;28;20380;-66
2023/09/25 19:32:09;;;;;;;0.10;0.10;;;;;;;-145.06;100.00;56373.97;10385050;28;20501;-66
2023/09/25 19:37:09;;;;;;;0.10;0.10;;;;;;;-145.06;100.00;56359.78;10391187;28;20033;-66
2023/09/25 19:42:09;;;;;;;0.10;0.10;;;;;;;-145.06;100.00;56367.91;10393768;28;20282;-66
2023/09/25 19:47:10;;;;;;;0.10;0.10;;;;;;;-145.06;100.00;56331.44;10388708;28;20021;-66
2023/09/25 19:52:10;;;;;;;0.10;0.10;;;;;;;-145.06;100.00;56339.53;10392419;28;20450;-66
2023/09/25 19:57:12;;;;;;;0.10;0.10;;;;;;;-145.06;100.00;56349.66;10393874;28;20044;-67
2023/09/25 20:02:13;;;;;;;0.10;0.10;;;;;;;-145.06;100.00;56355.75;10391719;28;20021;-66
2023/09/25 20:07:13;;;;;;;0.10;0.10;;;;;;;-145.06;100.00;56327.38;10394606;28;20031;-66
2023/09/25 20:12:13;;;;;;;0.00;0.00;;;;;;;-145.06;100.00;56345.59;10388800;28;20017;-66
2023/09/25 20:17:14;;;;;;;0.10;0.10;;;;;;;-145.06;100.00;56329.41;10392624;28;20056;-66
2023/09/25 20:22:14;;;;;;;0.10;0.10;;;;;;;-145.06;100.00;56303.06;10401958;28;20097;-66
2023/09/25 20:27:14;;;;;;;0.10;0.10;;;;;;;-145.06;100.00;56301.03;10398479;28;20100;-66
2023/09/25 20:32:15;;;;;;;0.10;0.10;;;;;;;-145.06;100.00;56313.19;10397147;28;20370;-66
2023/09/25 20:37:15;;;;;;;0.10;0.10;;;;;;;-145.06;100.00;56311.16;10400185;28;20270;-66
2023/09/25 20:42:16;;;;;;;0.10;0.10;;;;;;;-145.06;100.00;56282.78;10401578;28;20460;-66
2023/09/25 20:47:16;;;;;;;0.10;0.10;;;;;;;-145.06;100.00;56280.75;10397405;28;20017;-66
2023/09/25 20:52:16;;;;;;;0.00;0.00;;;;;;;-145.06;100.00;56246.31;10401218;28;20021;-66
2023/09/25 20:57:19;;;;;;;0.00;0.00;;;;;;;-145.06;100.00;56250.38;10402134;28;20131;-66
2023/09/25 21:02:20;;;;;;;0.08;0.08;;;;;;;-145.06;100.00;56278.75;10401079;28;20065;-66
2023/09/25 21:07:20;;;;;;;0.00;0.00;;;;;;;-145.06;100.00;56270.63;10401784;28;20084;-66
2023/09/25 21:12:20;;;;;;;0.00;0.00;;;;;;;-145.06;100.00;56240.25;10400620;28;20017;-66
2023/09/25 21:17:20;;;;;;;0.10;0.10;;;;;;;-145.06;100.00;56252.41;10395434;28;20025;-65
2023/09/25 21:22:21;;;;;;;0.08;0.08;;;;;;;-145.06;100.00;56217.94;10397984;28;20464;-66
2023/09/25 21:27:21;;;;;;;0.10;0.10;;;;;;;-145.06;100.00;56234.16;10400130;28;20473;-65
2023/09/25 21:32:21;;;;;;;0.10;0.10;;;;;;;-145.06;100.00;56234.16;10390407;28;20029;-65
2023/09/25 21:37:22;;;;;;;0.00;0.00;;;;;;;-145.06;100.00;56242.25;10390667;28;20472;-66
2023/09/25 21:42:23;;;;;;;0.00;0.00;;;;;;;-145.06;100.00;56226.06;10395656;28;20619;-65
2023/09/25 21:47:23;;;;;;;0.10;0.10;;;;;;;-145.06;100.00;56234.16;10392454;28;20029;-65
2023/09/25 21:52:25;;;;;;;0.00;0.00;;;;;;;-145.06;100.00;56256.44;10397025;28;20400;-65
2023/09/25 21:57:25;;;;;;;0.10;0.10;;;;;;;-145.06;100.00;56246.31;10389160;28;20079;-66
2023/09/25 22:02:25;;;;;;;0.10;0.10;;;;;;;-145.06;100.00;56226.06;10387100;28;20022;-65
2023/09/25 22:07:25;;;;;;;0.03;0.03;;;;;;;-145.06;100.00;56207.81;10391983;28;20021;-65
2023/09/25 22:12:26;;;;;;;0.10;0.10;;;;;;;-145.06;100.00;56240.25;10392209;28;20022;-65
2023/09/25 22:17:26;;;;;;;0.00;0.00;;;;;;;-145.06;100.00;56215.91;10391570;28;20026;-65
2023/09/25 22:22:27;;;;;;;0.00;0.00;;;;;;;-145.06;100.00;56222.00;10401140;28;20494;-66
2023/09/25 22:27:27;;;;;;;0.00;0.00;;;;;;;-145.06;100.00;56232.13;10392353;28;20021;-66
2023/09/25 22:32:28;;;;;;;0.00;0.00;;;;;;;-145.06;100.00;56209.84;10394100;28;20028;-65
2023/09/25 22:37:28;;;;;;;0.03;0.03;;;;;;;-145.06;100.00;56240.25;10397530;28;20296;-65